sensor_id;sensor_type;location;lat;lon;timestamp;P1;durP1;ratioP1;P2;durP2;ratioP2
9270;SDS011;4673;53.458;9.940;2023-03-08T00:00:40;2.57;;;2.57;;
9270;SDS011;4673;53.458;9.940;2023-03-08T00:03:06;1.90;;;1.90;;
9270;SDS011;4673;53.458;9.940;2023-03-08T00:05:31;2.10;;;2.10;;
9270;SDS011;4673;53.458;9.940;2023-03-08T00:07:57;2.53;;;2.53;;
9270;SDS011;4673;53.458;9.940;2023-03-08T00:10:23;1.93;;;1.93;;
9270;SDS011;4673;53.458;9.940;2023-03-08T00:12:48;2.17;;;2.17;;
9270;SDS011;4673;53.458;9.940;2023-03-08T00:15:14;2.20;;;2.20;;
9270;SDS011;4673;53.458;9.940;2023-03-08T00:17:40;2.10;;;2.10;;
9270;SDS011;4673;53.458;9.940;2023-03-08T00:20:06;2.40;;;2.40;;
9270;SDS011;4673;53.458;9.940;2023-03-08T00:22:38;2.20;;;2.20;;
9270;SDS011;4673;53.458;9.940;2023-03-08T00:25:05;2.40;;;2.40;;
9270;SDS011;4673;53.458;9.940;2023-03-08T00:27:32;2.60;;;2.60;;
9270;SDS011;4673;53.458;9.940;2023-03-08T00:29:59;2.23;;;2.23;;
9270;SDS011;4673;53.458;9.940;2023-03-08T00:32:25;2.07;;;2.07;;
9270;SDS011;4673;53.458;9.940;2023-03-08T00:34:51;2.60;;;2.60;;
9270;SDS011;4673;53.458;9.940;2023-03-08T00:37:17;2.90;;;2.90;;
9270;SDS011;4673;53.458;9.940;2023-03-08T00:39:43;2.23;;;2.23;;
9270;SDS011;4673;53.458;9.940;2023-03-08T00:42:09;2.07;;;2.07;;
9270;SDS011;4673;53.458;9.940;2023-03-08T00:44:34;2.17;;;2.17;;
9270;SDS011;4673;53.458;9.940;2023-03-08T00:47:00;2.23;;;2.23;;
9270;SDS011;4673;53.458;9.940;2023-03-08T00:49:25;2.30;;;2.30;;
9270;SDS011;4673;53.458;9.940;2023-03-08T00:51:51;2.20;;;2.20;;
9270;SDS011;4673;53.458;9.940;2023-03-08T00:54:17;2.13;;;2.13;;
9270;SDS011;4673;53.458;9.940;2023-03-08T00:56:42;2.50;;;2.50;;
9270;SDS011;4673;53.458;9.940;2023-03-08T00:59:08;2.20;;;2.20;;
9270;SDS011;4673;53.458;9.940;2023-03-08T01:01:33;2.90;;;2.90;;
9270;SDS011;4673;53.458;9.940;2023-03-08T01:04:00;2.40;;;2.40;;
9270;SDS011;4673;53.458;9.940;2023-03-08T01:06:26;2.53;;;2.53;;
9270;SDS011;4673;53.458;9.940;2023-03-08T01:08:51;2.40;;;2.40;;
9270;SDS011;4673;53.458;9.940;2023-03-08T01:11:26;2.43;;;2.43;;
9270;SDS011;4673;53.458;9.940;2023-03-08T01:13:52;2.63;;;2.63;;
9270;SDS011;4673;53.458;9.940;2023-03-08T01:16:26;2.03;;;2.03;;
9270;SDS011;4673;53.458;9.940;2023-03-08T01:18:53;2.03;;;2.03;;
9270;SDS011;4673;53.458;9.940;2023-03-08T01:21:20;2.33;;;2.33;;
9270;SDS011;4673;53.458;9.940;2023-03-08T01:23:46;2.77;;;2.77;;
9270;SDS011;4673;53.458;9.940;2023-03-08T01:26:13;2.20;;;2.20;;
9270;SDS011;4673;53.458;9.940;2023-03-08T01:28:44;2.17;;;2.17;;
9270;SDS011;4673;53.458;9.940;2023-03-08T01:31:11;3.00;;;3.00;;
9270;SDS011;4673;53.458;9.940;2023-03-08T01:33:39;2.80;;;2.80;;
9270;SDS011;4673;53.458;9.940;2023-03-08T01:36:06;2.80;;;2.80;;
9270;SDS011;4673;53.458;9.940;2023-03-08T01:38:34;2.23;;;2.23;;
9270;SDS011;4673;53.458;9.940;2023-03-08T01:41:00;2.40;;;2.40;;
9270;SDS011;4673;53.458;9.940;2023-03-08T01:43:29;2.57;;;2.57;;
9270;SDS011;4673;53.458;9.940;2023-03-08T01:48:27;2.50;;;2.50;;
9270;SDS011;4673;53.458;9.940;2023-03-08T01:50:57;2.57;;;2.57;;
9270;SDS011;4673;53.458;9.940;2023-03-08T01:53:24;2.50;;;2.50;;
9270;SDS011;4673;53.458;9.940;2023-03-08T01:55:50;2.70;;;2.70;;
9270;SDS011;4673;53.458;9.940;2023-03-08T01:58:16;2.90;;;2.90;;
9270;SDS011;4673;53.458;9.940;2023-03-08T02:00:42;3.03;;;3.03;;
9270;SDS011;4673;53.458;9.940;2023-03-08T02:03:09;3.20;;;3.20;;
9270;SDS011;4673;53.458;9.940;2023-03-08T02:05:36;3.43;;;3.43;;
9270;SDS011;4673;53.458;9.940;2023-03-08T02:08:04;3.20;;;3.20;;
9270;SDS011;4673;53.458;9.940;2023-03-08T02:10:30;3.67;;;3.67;;
9270;SDS011;4673;53.458;9.940;2023-03-08T02:12:56;4.00;;;4.00;;
9270;SDS011;4673;53.458;9.940;2023-03-08T02:15:22;4.00;;;4.00;;
9270;SDS011;4673;53.458;9.940;2023-03-08T02:17:49;4.07;;;4.07;;
9270;SDS011;4673;53.458;9.940;2023-03-08T02:20:16;4.50;;;4.50;;
9270;SDS011;4673;53.458;9.940;2023-03-08T02:22:47;4.50;;;4.50;;
9270;SDS011;4673;53.458;9.940;2023-03-08T02:25:17;4.53;;;4.53;;
9270;SDS011;4673;53.458;9.940;2023-03-08T02:27:45;4.33;;;4.33;;
9270;SDS011;4673;53.458;9.940;2023-03-08T02:30:13;4.87;;;4.87;;
9270;SDS011;4673;53.458;9.940;2023-03-08T02:32:41;5.13;;;5.13;;
9270;SDS011;4673;53.458;9.940;2023-03-08T02:35:07;5.97;;;5.97;;
9270;SDS011;4673;53.458;9.940;2023-03-08T02:37:33;5.50;;;5.50;;
9270;SDS011;4673;53.458;9.940;2023-03-08T02:39:59;6.37;;;6.37;;
9270;SDS011;4673;53.458;9.940;2023-03-08T02:42:24;6.30;;;6.30;;
9270;SDS011;4673;53.458;9.940;2023-03-08T02:44:50;6.80;;;6.80;;
9270;SDS011;4673;53.458;9.940;2023-03-08T02:47:16;7.53;;;7.53;;
9270;SDS011;4673;53.458;9.940;2023-03-08T02:49:41;6.87;;;6.87;;
9270;SDS011;4673;53.458;9.940;2023-03-08T02:52:07;7.67;;;7.60;;
9270;SDS011;4673;53.458;9.940;2023-03-08T02:54:33;6.50;;;6.50;;
9270;SDS011;4673;53.458;9.940;2023-03-08T02:56:58;7.57;;;7.57;;
9270;SDS011;4673;53.458;9.940;2023-03-08T02:59:24;6.97;;;6.97;;
9270;SDS011;4673;53.458;9.940;2023-03-08T03:01:50;6.73;;;6.73;;
9270;SDS011;4673;53.458;9.940;2023-03-08T03:04:16;8.90;;;8.90;;
9270;SDS011;4673;53.458;9.940;2023-03-08T03:06:42;8.13;;;8.13;;
9270;SDS011;4673;53.458;9.940;2023-03-08T03:09:08;7.57;;;7.57;;
9270;SDS011;4673;53.458;9.940;2023-03-08T03:11:35;7.40;;;7.40;;
9270;SDS011;4673;53.458;9.940;2023-03-08T03:14:01;7.90;;;7.90;;
9270;SDS011;4673;53.458;9.940;2023-03-08T03:16:27;7.43;;;7.43;;
9270;SDS011;4673;53.458;9.940;2023-03-08T03:18:53;7.93;;;7.93;;
9270;SDS011;4673;53.458;9.940;2023-03-08T03:21:19;7.27;;;7.27;;
9270;SDS011;4673;53.458;9.940;2023-03-08T03:23:46;6.23;;;6.23;;
9270;SDS011;4673;53.458;9.940;2023-03-08T03:26:16;7.03;;;7.03;;
9270;SDS011;4673;53.458;9.940;2023-03-08T03:28:43;6.90;;;6.90;;
9270;SDS011;4673;53.458;9.940;2023-03-08T03:31:14;6.37;;;6.37;;
9270;SDS011;4673;53.458;9.940;2023-03-08T03:33:41;6.37;;;6.37;;
9270;SDS011;4673;53.458;9.940;2023-03-08T03:36:07;6.40;;;6.40;;
9270;SDS011;4673;53.458;9.940;2023-03-08T03:38:36;6.03;;;6.03;;
9270;SDS011;4673;53.458;9.940;2023-03-08T03:41:03;6.03;;;6.03;;
9270;SDS011;4673;53.458;9.940;2023-03-08T03:43:33;6.63;;;6.63;;
9270;SDS011;4673;53.458;9.940;2023-03-08T03:46:01;6.63;;;6.63;;
9270;SDS011;4673;53.458;9.940;2023-03-08T03:48:28;5.70;;;5.70;;
9270;SDS011;4673;53.458;9.940;2023-03-08T03:50:58;6.40;;;6.40;;
9270;SDS011;4673;53.458;9.940;2023-03-08T03:53:26;5.87;;;5.87;;
9270;SDS011;4673;53.458;9.940;2023-03-08T03:55:53;6.70;;;6.70;;
9270;SDS011;4673;53.458;9.940;2023-03-08T03:58:19;6.10;;;6.10;;
9270;SDS011;4673;53.458;9.940;2023-03-08T04:00:45;5.00;;;5.00;;
9270;SDS011;4673;53.458;9.940;2023-03-08T04:03:10;6.17;;;6.17;;
9270;SDS011;4673;53.458;9.940;2023-03-08T04:05:36;7.03;;;7.03;;
9270;SDS011;4673;53.458;9.940;2023-03-08T04:08:03;6.87;;;6.87;;
9270;SDS011;4673;53.458;9.940;2023-03-08T04:10:30;7.10;;;7.10;;
9270;SDS011;4673;53.458;9.940;2023-03-08T04:12:56;7.30;;;7.30;;
9270;SDS011;4673;53.458;9.940;2023-03-08T04:15:21;7.80;;;7.80;;
9270;SDS011;4673;53.458;9.940;2023-03-08T04:17:47;8.10;;;8.10;;
9270;SDS011;4673;53.458;9.940;2023-03-08T04:20:14;7.30;;;7.30;;
9270;SDS011;4673;53.458;9.940;2023-03-08T04:22:40;6.67;;;6.67;;
9270;SDS011;4673;53.458;9.940;2023-03-08T04:25:05;7.83;;;7.83;;
9270;SDS011;4673;53.458;9.940;2023-03-08T04:27:31;7.73;;;7.73;;
9270;SDS011;4673;53.458;9.940;2023-03-08T04:29:57;9.33;;;9.33;;
9270;SDS011;4673;53.458;9.940;2023-03-08T04:32:22;9.83;;;9.83;;
9270;SDS011;4673;53.458;9.940;2023-03-08T04:34:48;10.03;;;10.03;;
9270;SDS011;4673;53.458;9.940;2023-03-08T04:37:14;7.90;;;7.90;;
9270;SDS011;4673;53.458;9.940;2023-03-08T04:39:39;9.40;;;9.40;;
9270;SDS011;4673;53.458;9.940;2023-03-08T04:42:05;9.90;;;9.90;;
9270;SDS011;4673;53.458;9.940;2023-03-08T04:44:31;10.07;;;10.07;;
9270;SDS011;4673;53.458;9.940;2023-03-08T04:46:56;9.60;;;9.60;;
9270;SDS011;4673;53.458;9.940;2023-03-08T04:49:22;10.57;;;10.47;;
9270;SDS011;4673;53.458;9.940;2023-03-08T04:51:49;9.73;;;9.73;;
9270;SDS011;4673;53.458;9.940;2023-03-08T04:54:15;10.67;;;10.60;;
9270;SDS011;4673;53.458;9.940;2023-03-08T04:56:40;12.83;;;12.73;;
9270;SDS011;4673;53.458;9.940;2023-03-08T04:59:06;12.97;;;12.87;;
9270;SDS011;4673;53.458;9.940;2023-03-08T05:01:32;12.60;;;12.50;;
9270;SDS011;4673;53.458;9.940;2023-03-08T05:03:57;11.60;;;11.60;;
9270;SDS011;4673;53.458;9.940;2023-03-08T05:06:24;11.40;;;11.40;;
9270;SDS011;4673;53.458;9.940;2023-03-08T05:08:51;10.17;;;10.17;;
9270;SDS011;4673;53.458;9.940;2023-03-08T05:11:19;11.20;;;11.10;;
9270;SDS011;4673;53.458;9.940;2023-03-08T05:13:46;10.27;;;10.23;;
9270;SDS011;4673;53.458;9.940;2023-03-08T05:16:12;12.20;;;12.10;;
9270;SDS011;4673;53.458;9.940;2023-03-08T05:18:38;10.77;;;10.77;;
9270;SDS011;4673;53.458;9.940;2023-03-08T05:21:09;10.07;;;9.97;;
9270;SDS011;4673;53.458;9.940;2023-03-08T05:23:36;10.17;;;10.13;;
9270;SDS011;4673;53.458;9.940;2023-03-08T05:26:02;10.43;;;10.33;;
9270;SDS011;4673;53.458;9.940;2023-03-08T05:28:30;9.53;;;9.53;;
9270;SDS011;4673;53.458;9.940;2023-03-08T05:31:07;10.17;;;10.17;;
9270;SDS011;4673;53.458;9.940;2023-03-08T05:33:37;9.63;;;9.53;;
9270;SDS011;4673;53.458;9.940;2023-03-08T05:36:03;9.37;;;9.37;;
9270;SDS011;4673;53.458;9.940;2023-03-08T05:38:30;9.50;;;9.47;;
9270;SDS011;4673;53.458;9.940;2023-03-08T05:41:02;9.13;;;9.13;;
9270;SDS011;4673;53.458;9.940;2023-03-08T05:43:30;10.13;;;10.13;;
9270;SDS011;4673;53.458;9.940;2023-03-08T05:45:56;9.23;;;9.23;;
9270;SDS011;4673;53.458;9.940;2023-03-08T05:48:24;10.60;;;10.60;;
9270;SDS011;4673;53.458;9.940;2023-03-08T05:50:50;8.73;;;8.73;;
9270;SDS011;4673;53.458;9.940;2023-03-08T05:53:16;8.83;;;8.77;;
9270;SDS011;4673;53.458;9.940;2023-03-08T05:55:41;10.27;;;10.20;;
9270;SDS011;4673;53.458;9.940;2023-03-08T05:58:07;9.57;;;9.47;;
9270;SDS011;4673;53.458;9.940;2023-03-08T06:00:32;8.77;;;8.77;;
9270;SDS011;4673;53.458;9.940;2023-03-08T06:02:59;9.33;;;9.30;;
9270;SDS011;4673;53.458;9.940;2023-03-08T06:05:27;8.50;;;8.50;;
9270;SDS011;4673;53.458;9.940;2023-03-08T06:07:54;9.90;;;9.90;;
9270;SDS011;4673;53.458;9.940;2023-03-08T06:10:20;9.20;;;9.20;;
9270;SDS011;4673;53.458;9.940;2023-03-08T06:12:45;9.33;;;9.33;;
9270;SDS011;4673;53.458;9.940;2023-03-08T06:15:11;8.10;;;8.10;;
9270;SDS011;4673;53.458;9.940;2023-03-08T06:17:37;9.00;;;9.00;;
9270;SDS011;4673;53.458;9.940;2023-03-08T06:20:03;9.93;;;9.83;;
9270;SDS011;4673;53.458;9.940;2023-03-08T06:22:30;9.67;;;9.67;;
9270;SDS011;4673;53.458;9.940;2023-03-08T06:24:55;9.50;;;9.40;;
9270;SDS011;4673;53.458;9.940;2023-03-08T06:27:21;8.50;;;8.50;;
9270;SDS011;4673;53.458;9.940;2023-03-08T06:29:46;8.33;;;8.33;;
9270;SDS011;4673;53.458;9.940;2023-03-08T06:32:13;9.00;;;9.00;;
9270;SDS011;4673;53.458;9.940;2023-03-08T06:34:38;8.03;;;8.03;;
9270;SDS011;4673;53.458;9.940;2023-03-08T06:37:04;8.63;;;8.60;;
9270;SDS011;4673;53.458;9.940;2023-03-08T06:39:29;8.37;;;8.27;;
9270;SDS011;4673;53.458;9.940;2023-03-08T06:41:56;9.40;;;9.40;;
9270;SDS011;4673;53.458;9.940;2023-03-08T06:44:22;9.20;;;9.20;;
9270;SDS011;4673;53.458;9.940;2023-03-08T06:46:47;7.73;;;7.73;;
9270;SDS011;4673;53.458;9.940;2023-03-08T06:49:13;8.40;;;8.40;;
9270;SDS011;4673;53.458;9.940;2023-03-08T06:51:38;9.23;;;9.23;;
9270;SDS011;4673;53.458;9.940;2023-03-08T06:54:04;8.73;;;8.73;;
9270;SDS011;4673;53.458;9.940;2023-03-08T06:56:30;9.03;;;9.03;;
9270;SDS011;4673;53.458;9.940;2023-03-08T06:58:58;8.67;;;8.67;;
9270;SDS011;4673;53.458;9.940;2023-03-08T07:01:24;9.27;;;9.27;;
9270;SDS011;4673;53.458;9.940;2023-03-08T07:03:49;9.27;;;9.27;;
9270;SDS011;4673;53.458;9.940;2023-03-08T07:06:16;9.47;;;9.47;;
9270;SDS011;4673;53.458;9.940;2023-03-08T07:08:42;9.17;;;9.17;;
9270;SDS011;4673;53.458;9.940;2023-03-08T07:11:08;10.00;;;9.90;;
9270;SDS011;4673;53.458;9.940;2023-03-08T07:13:34;9.23;;;9.23;;
9270;SDS011;4673;53.458;9.940;2023-03-08T07:16:04;8.50;;;8.50;;
9270;SDS011;4673;53.458;9.940;2023-03-08T07:18:31;8.83;;;8.83;;
9270;SDS011;4673;53.458;9.940;2023-03-08T07:20:57;9.27;;;9.27;;
9270;SDS011;4673;53.458;9.940;2023-03-08T07:23:23;9.30;;;9.30;;
9270;SDS011;4673;53.458;9.940;2023-03-08T07:25:48;8.40;;;8.40;;
9270;SDS011;4673;53.458;9.940;2023-03-08T07:28:14;8.60;;;8.60;;
9270;SDS011;4673;53.458;9.940;2023-03-08T07:30:40;8.30;;;8.30;;
9270;SDS011;4673;53.458;9.940;2023-03-08T07:33:10;9.13;;;9.13;;
9270;SDS011;4673;53.458;9.940;2023-03-08T07:35:36;8.20;;;8.20;;
9270;SDS011;4673;53.458;9.940;2023-03-08T07:38:01;7.53;;;7.53;;
9270;SDS011;4673;53.458;9.940;2023-03-08T07:40:27;8.30;;;8.30;;
9270;SDS011;4673;53.458;9.940;2023-03-08T07:42:52;7.87;;;7.87;;
9270;SDS011;4673;53.458;9.940;2023-03-08T07:45:20;7.50;;;7.50;;
9270;SDS011;4673;53.458;9.940;2023-03-08T07:47:50;7.00;;;7.00;;
9270;SDS011;4673;53.458;9.940;2023-03-08T07:50:19;7.47;;;7.47;;
9270;SDS011;4673;53.458;9.940;2023-03-08T07:52:45;7.90;;;7.90;;
9270;SDS011;4673;53.458;9.940;2023-03-08T07:55:11;6.13;;;6.13;;
9270;SDS011;4673;53.458;9.940;2023-03-08T07:57:37;8.17;;;8.17;;
9270;SDS011;4673;53.458;9.940;2023-03-08T08:00:04;6.67;;;6.67;;
9270;SDS011;4673;53.458;9.940;2023-03-08T08:02:33;7.43;;;7.43;;
9270;SDS011;4673;53.458;9.940;2023-03-08T08:05:00;7.67;;;7.67;;
9270;SDS011;4673;53.458;9.940;2023-03-08T08:07:26;8.27;;;8.27;;
9270;SDS011;4673;53.458;9.940;2023-03-08T08:09:52;7.53;;;7.53;;
9270;SDS011;4673;53.458;9.940;2023-03-08T08:12:18;6.30;;;6.30;;
9270;SDS011;4673;53.458;9.940;2023-03-08T08:14:44;7.20;;;7.20;;
9270;SDS011;4673;53.458;9.940;2023-03-08T08:17:10;7.33;;;7.33;;
9270;SDS011;4673;53.458;9.940;2023-03-08T08:19:36;7.10;;;7.10;;
9270;SDS011;4673;53.458;9.940;2023-03-08T08:22:02;7.17;;;7.17;;
9270;SDS011;4673;53.458;9.940;2023-03-08T08:24:29;7.13;;;7.13;;
9270;SDS011;4673;53.458;9.940;2023-03-08T08:26:56;7.20;;;7.20;;
9270;SDS011;4673;53.458;9.940;2023-03-08T08:29:22;6.70;;;6.70;;
9270;SDS011;4673;53.458;9.940;2023-03-08T08:31:48;6.80;;;6.80;;
9270;SDS011;4673;53.458;9.940;2023-03-08T08:34:16;7.17;;;7.17;;
9270;SDS011;4673;53.458;9.940;2023-03-08T08:36:43;7.00;;;7.00;;
9270;SDS011;4673;53.458;9.940;2023-03-08T08:39:09;6.03;;;6.03;;
9270;SDS011;4673;53.458;9.940;2023-03-08T08:41:34;6.87;;;6.87;;
9270;SDS011;4673;53.458;9.940;2023-03-08T08:44:00;7.00;;;6.90;;
9270;SDS011;4673;53.458;9.940;2023-03-08T08:46:27;5.93;;;5.93;;
9270;SDS011;4673;53.458;9.940;2023-03-08T08:48:53;6.07;;;6.07;;
9270;SDS011;4673;53.458;9.940;2023-03-08T08:51:19;5.60;;;5.60;;
9270;SDS011;4673;53.458;9.940;2023-03-08T08:53:45;6.73;;;6.73;;
9270;SDS011;4673;53.458;9.940;2023-03-08T08:58:47;6.80;;;6.80;;
9270;SDS011;4673;53.458;9.940;2023-03-08T09:01:17;5.60;;;5.60;;
9270;SDS011;4673;53.458;9.940;2023-03-08T09:03:45;5.67;;;5.67;;
9270;SDS011;4673;53.458;9.940;2023-03-08T09:06:12;5.60;;;5.60;;
9270;SDS011;4673;53.458;9.940;2023-03-08T09:08:38;5.60;;;5.60;;
9270;SDS011;4673;53.458;9.940;2023-03-08T09:11:04;5.70;;;5.70;;
9270;SDS011;4673;53.458;9.940;2023-03-08T09:13:31;4.97;;;4.97;;
9270;SDS011;4673;53.458;9.940;2023-03-08T09:15:57;4.70;;;4.70;;
9270;SDS011;4673;53.458;9.940;2023-03-08T09:18:23;5.00;;;5.00;;
9270;SDS011;4673;53.458;9.940;2023-03-08T09:20:49;5.37;;;5.37;;
9270;SDS011;4673;53.458;9.940;2023-03-08T09:23:15;5.00;;;5.00;;
9270;SDS011;4673;53.458;9.940;2023-03-08T09:25:41;4.73;;;4.73;;
9270;SDS011;4673;53.458;9.940;2023-03-08T09:28:07;5.70;;;5.70;;
9270;SDS011;4673;53.458;9.940;2023-03-08T09:30:34;5.20;;;5.20;;
9270;SDS011;4673;53.458;9.940;2023-03-08T09:33:00;5.10;;;5.10;;
9270;SDS011;4673;53.458;9.940;2023-03-08T09:35:27;5.00;;;5.00;;
9270;SDS011;4673;53.458;9.940;2023-03-08T09:37:52;4.97;;;4.97;;
9270;SDS011;4673;53.458;9.940;2023-03-08T09:40:25;5.30;;;5.30;;
9270;SDS011;4673;53.458;9.940;2023-03-08T09:42:51;5.40;;;5.40;;
9270;SDS011;4673;53.458;9.940;2023-03-08T09:45:23;5.47;;;5.47;;
9270;SDS011;4673;53.458;9.940;2023-03-08T09:55:40;5.20;;;5.20;;
9270;SDS011;4673;53.458;9.940;2023-03-08T09:58:16;4.97;;;4.97;;
9270;SDS011;4673;53.458;9.940;2023-03-08T10:00:43;5.53;;;5.53;;
9270;SDS011;4673;53.458;9.940;2023-03-08T10:04:12;5.83;;;5.83;;
9270;SDS011;4673;53.458;9.940;2023-03-08T10:11:36;5.00;;;5.00;;
9270;SDS011;4673;53.458;9.940;2023-03-08T10:14:18;4.80;;;4.80;;
9270;SDS011;4673;53.458;9.940;2023-03-08T10:17:32;4.03;;;4.03;;
9270;SDS011;4673;53.458;9.940;2023-03-08T10:19:43;5.27;;;5.27;;
9270;SDS011;4673;53.458;9.940;2023-03-08T10:22:36;3.90;;;3.90;;
9270;SDS011;4673;53.458;9.940;2023-03-08T10:25:22;4.37;;;4.37;;
9270;SDS011;4673;53.458;9.940;2023-03-08T10:27:52;3.77;;;3.77;;
9270;SDS011;4673;53.458;9.940;2023-03-08T10:30:21;4.50;;;4.50;;
9270;SDS011;4673;53.458;9.940;2023-03-08T10:32:50;4.27;;;4.27;;
9270;SDS011;4673;53.458;9.940;2023-03-08T10:35:29;4.13;;;4.13;;
9270;SDS011;4673;53.458;9.940;2023-03-08T10:38:15;4.13;;;4.13;;
9270;SDS011;4673;53.458;9.940;2023-03-08T10:40:41;4.27;;;4.27;;
9270;SDS011;4673;53.458;9.940;2023-03-08T10:43:07;4.17;;;4.17;;
9270;SDS011;4673;53.458;9.940;2023-03-08T10:45:43;3.60;;;3.60;;
9270;SDS011;4673;53.458;9.940;2023-03-08T10:48:16;4.03;;;4.03;;
9270;SDS011;4673;53.458;9.940;2023-03-08T10:50:45;3.73;;;3.73;;
9270;SDS011;4673;53.458;9.940;2023-03-08T10:53:25;3.70;;;3.70;;
9270;SDS011;4673;53.458;9.940;2023-03-08T10:55:53;3.57;;;3.57;;
9270;SDS011;4673;53.458;9.940;2023-03-08T10:58:28;3.20;;;3.20;;
9270;SDS011;4673;53.458;9.940;2023-03-08T11:00:55;3.10;;;3.10;;
9270;SDS011;4673;53.458;9.940;2023-03-08T11:03:23;3.20;;;3.20;;
9270;SDS011;4673;53.458;9.940;2023-03-08T11:08:24;2.87;;;2.87;;
9270;SDS011;4673;53.458;9.940;2023-03-08T11:11:00;3.10;;;3.10;;
9270;SDS011;4673;53.458;9.940;2023-03-08T11:13:54;2.70;;;2.70;;
9270;SDS011;4673;53.458;9.940;2023-03-08T11:16:21;2.50;;;2.50;;
9270;SDS011;4673;53.458;9.940;2023-03-08T11:30:31;2.80;;;2.80;;
9270;SDS011;4673;53.458;9.940;2023-03-08T11:35:57;2.23;;;2.23;;
9270;SDS011;4673;53.458;9.940;2023-03-08T11:38:36;1.97;;;1.97;;
9270;SDS011;4673;53.458;9.940;2023-03-08T11:41:16;2.30;;;2.30;;
9270;SDS011;4673;53.458;9.940;2023-03-08T11:58:02;2.80;;;2.80;;
9270;SDS011;4673;53.458;9.940;2023-03-08T12:00:35;2.40;;;2.40;;
9270;SDS011;4673;53.458;9.940;2023-03-08T12:03:07;2.37;;;2.37;;
9270;SDS011;4673;53.458;9.940;2023-03-08T12:05:43;2.53;;;2.53;;
9270;SDS011;4673;53.458;9.940;2023-03-08T12:10:53;3.87;;;3.87;;
9270;SDS011;4673;53.458;9.940;2023-03-08T12:13:54;2.70;;;2.70;;
9270;SDS011;4673;53.458;9.940;2023-03-08T12:24:45;2.50;;;2.50;;
9270;SDS011;4673;53.458;9.940;2023-03-08T12:27:42;3.17;;;3.17;;
9270;SDS011;4673;53.458;9.940;2023-03-08T12:30:15;3.40;;;3.40;;
9270;SDS011;4673;53.458;9.940;2023-03-08T12:32:42;3.27;;;3.27;;
9270;SDS011;4673;53.458;9.940;2023-03-08T12:38:00;2.63;;;2.63;;
9270;SDS011;4673;53.458;9.940;2023-03-08T12:43:27;2.90;;;2.90;;
9270;SDS011;4673;53.458;9.940;2023-03-08T12:58:46;2.70;;;2.70;;
9270;SDS011;4673;53.458;9.940;2023-03-08T13:04:22;2.50;;;2.50;;
9270;SDS011;4673;53.458;9.940;2023-03-08T13:07:07;2.37;;;2.37;;
9270;SDS011;4673;53.458;9.940;2023-03-08T13:14:45;2.20;;;2.20;;
9270;SDS011;4673;53.458;9.940;2023-03-08T13:20:21;1.87;;;1.87;;
9270;SDS011;4673;53.458;9.940;2023-03-08T13:28:23;2.43;;;2.43;;
9270;SDS011;4673;53.458;9.940;2023-03-08T13:30:52;2.93;;;2.93;;
9270;SDS011;4673;53.458;9.940;2023-03-08T13:35:58;2.20;;;2.20;;
9270;SDS011;4673;53.458;9.940;2023-03-08T13:38:53;3.20;;;3.20;;
9270;SDS011;4673;53.458;9.940;2023-03-08T13:41:33;3.10;;;3.10;;
9270;SDS011;4673;53.458;9.940;2023-03-08T13:44:13;2.47;;;2.47;;
9270;SDS011;4673;53.458;9.940;2023-03-08T13:47:00;2.53;;;2.53;;
9270;SDS011;4673;53.458;9.940;2023-03-08T13:49:30;2.97;;;2.97;;
9270;SDS011;4673;53.458;9.940;2023-03-08T13:52:00;2.30;;;2.30;;
9270;SDS011;4673;53.458;9.940;2023-03-08T13:54:34;2.20;;;2.20;;
9270;SDS011;4673;53.458;9.940;2023-03-08T13:57:02;3.37;;;3.37;;
9270;SDS011;4673;53.458;9.940;2023-03-08T13:59:31;2.20;;;2.20;;
9270;SDS011;4673;53.458;9.940;2023-03-08T14:01:58;2.30;;;2.30;;
9270;SDS011;4673;53.458;9.940;2023-03-08T14:04:26;2.30;;;2.30;;
9270;SDS011;4673;53.458;9.940;2023-03-08T14:06:54;2.10;;;2.10;;
9270;SDS011;4673;53.458;9.940;2023-03-08T14:09:21;3.57;;;3.57;;
9270;SDS011;4673;53.458;9.940;2023-03-08T14:11:57;2.27;;;2.27;;
9270;SDS011;4673;53.458;9.940;2023-03-08T14:14:30;2.37;;;2.37;;
9270;SDS011;4673;53.458;9.940;2023-03-08T14:16:58;1.97;;;1.97;;
9270;SDS011;4673;53.458;9.940;2023-03-08T14:19:30;2.30;;;2.30;;
9270;SDS011;4673;53.458;9.940;2023-03-08T14:22:11;1.90;;;1.90;;
9270;SDS011;4673;53.458;9.940;2023-03-08T14:24:42;2.37;;;2.37;;
9270;SDS011;4673;53.458;9.940;2023-03-08T14:29:44;2.27;;;2.27;;
9270;SDS011;4673;53.458;9.940;2023-03-08T14:34:45;3.13;;;3.13;;
9270;SDS011;4673;53.458;9.940;2023-03-08T14:39:42;2.30;;;2.30;;
9270;SDS011;4673;53.458;9.940;2023-03-08T14:42:15;2.60;;;2.60;;
9270;SDS011;4673;53.458;9.940;2023-03-08T14:45:16;2.60;;;2.60;;
9270;SDS011;4673;53.458;9.940;2023-03-08T14:47:54;1.97;;;1.97;;
9270;SDS011;4673;53.458;9.940;2023-03-08T14:52:56;2.03;;;2.03;;
9270;SDS011;4673;53.458;9.940;2023-03-08T14:57:56;2.87;;;2.87;;
9270;SDS011;4673;53.458;9.940;2023-03-08T15:00:28;1.97;;;1.97;;
9270;SDS011;4673;53.458;9.940;2023-03-08T15:02:57;2.50;;;2.50;;
9270;SDS011;4673;53.458;9.940;2023-03-08T15:05:24;2.57;;;2.57;;
9270;SDS011;4673;53.458;9.940;2023-03-08T15:07:51;2.00;;;2.00;;
9270;SDS011;4673;53.458;9.940;2023-03-08T15:10:28;2.43;;;2.43;;
9270;SDS011;4673;53.458;9.940;2023-03-08T15:12:57;2.27;;;2.27;;
9270;SDS011;4673;53.458;9.940;2023-03-08T15:15:23;1.90;;;1.90;;
9270;SDS011;4673;53.458;9.940;2023-03-08T15:17:49;2.00;;;2.00;;
9270;SDS011;4673;53.458;9.940;2023-03-08T15:20:15;2.23;;;2.23;;
9270;SDS011;4673;53.458;9.940;2023-03-08T15:22:45;2.00;;;2.00;;
9270;SDS011;4673;53.458;9.940;2023-03-08T15:25:18;2.17;;;2.17;;
9270;SDS011;4673;53.458;9.940;2023-03-08T15:27:48;2.27;;;2.27;;
9270;SDS011;4673;53.458;9.940;2023-03-08T15:30:18;2.13;;;2.13;;
9270;SDS011;4673;53.458;9.940;2023-03-08T15:32:46;1.93;;;1.93;;
9270;SDS011;4673;53.458;9.940;2023-03-08T15:35:12;2.17;;;2.17;;
9270;SDS011;4673;53.458;9.940;2023-03-08T15:37:39;1.70;;;1.70;;
9270;SDS011;4673;53.458;9.940;2023-03-08T15:40:04;2.40;;;2.40;;
9270;SDS011;4673;53.458;9.940;2023-03-08T15:42:35;2.53;;;2.53;;
9270;SDS011;4673;53.458;9.940;2023-03-08T15:45:00;2.37;;;2.37;;
9270;SDS011;4673;53.458;9.940;2023-03-08T15:47:26;2.53;;;2.53;;
9270;SDS011;4673;53.458;9.940;2023-03-08T15:49:51;2.67;;;2.67;;
9270;SDS011;4673;53.458;9.940;2023-03-08T15:52:17;1.90;;;1.90;;
9270;SDS011;4673;53.458;9.940;2023-03-08T15:54:43;2.00;;;2.00;;
9270;SDS011;4673;53.458;9.940;2023-03-08T15:57:11;2.80;;;2.80;;
9270;SDS011;4673;53.458;9.940;2023-03-08T15:59:37;3.33;;;3.33;;
9270;SDS011;4673;53.458;9.940;2023-03-08T16:02:04;3.67;;;3.67;;
9270;SDS011;4673;53.458;9.940;2023-03-08T16:04:29;3.67;;;3.67;;
9270;SDS011;4673;53.458;9.940;2023-03-08T16:06:55;3.23;;;3.23;;
9270;SDS011;4673;53.458;9.940;2023-03-08T16:09:21;3.77;;;3.77;;
9270;SDS011;4673;53.458;9.940;2023-03-08T16:11:47;3.07;;;3.07;;
9270;SDS011;4673;53.458;9.940;2023-03-08T16:14:13;2.70;;;2.70;;
9270;SDS011;4673;53.458;9.940;2023-03-08T16:16:42;2.23;;;2.23;;
9270;SDS011;4673;53.458;9.940;2023-03-08T16:19:09;2.73;;;2.73;;
9270;SDS011;4673;53.458;9.940;2023-03-08T16:21:34;4.37;;;4.37;;
9270;SDS011;4673;53.458;9.940;2023-03-08T16:24:00;2.57;;;2.57;;
9270;SDS011;4673;53.458;9.940;2023-03-08T16:26:26;7.87;;;7.77;;
9270;SDS011;4673;53.458;9.940;2023-03-08T16:28:53;6.07;;;6.07;;
9270;SDS011;4673;53.458;9.940;2023-03-08T16:31:19;4.00;;;4.00;;
9270;SDS011;4673;53.458;9.940;2023-03-08T16:33:46;3.47;;;3.47;;
9270;SDS011;4673;53.458;9.940;2023-03-08T16:36:13;2.87;;;2.87;;
9270;SDS011;4673;53.458;9.940;2023-03-08T16:38:39;2.80;;;2.80;;
9270;SDS011;4673;53.458;9.940;2023-03-08T16:41:05;2.20;;;2.20;;
9270;SDS011;4673;53.458;9.940;2023-03-08T16:43:31;2.23;;;2.23;;
9270;SDS011;4673;53.458;9.940;2023-03-08T16:45:58;2.33;;;2.33;;
9270;SDS011;4673;53.458;9.940;2023-03-08T16:48:25;2.23;;;2.23;;
9270;SDS011;4673;53.458;9.940;2023-03-08T16:50:53;2.30;;;2.30;;
9270;SDS011;4673;53.458;9.940;2023-03-08T16:53:23;2.20;;;2.20;;
9270;SDS011;4673;53.458;9.940;2023-03-08T16:55:49;2.37;;;2.37;;
9270;SDS011;4673;53.458;9.940;2023-03-08T16:58:16;2.87;;;2.87;;
9270;SDS011;4673;53.458;9.940;2023-03-08T17:00:43;2.47;;;2.47;;
9270;SDS011;4673;53.458;9.940;2023-03-08T17:03:09;2.60;;;2.60;;
9270;SDS011;4673;53.458;9.940;2023-03-08T17:05:38;2.90;;;2.90;;
9270;SDS011;4673;53.458;9.940;2023-03-08T17:08:04;2.73;;;2.73;;
9270;SDS011;4673;53.458;9.940;2023-03-08T17:10:30;2.47;;;2.47;;
9270;SDS011;4673;53.458;9.940;2023-03-08T17:13:00;2.57;;;2.57;;